Time;durP1;ratioP1;P1;durP2;ratioP2;P2;SDS_P1;SDS_P2;PMS_P1;PMS_P2;Temp;Humidity;BMP_temperature;BMP_pressure;BME280_temperature;BME280_humidity;BME280_pressure;Samples;Min_cycle;Max_cycle;Signal;HPM_P1;HPM_P2
2023/09/03 00:01:01;;;;;;;4.10;2.47;;;14.40;99.90;;;;;;5024342;28;20455;-65
2023/09/03 00:03:27;;;;;;;2.58;2.38;;;14.40;99.90;;;;;;5024222;28;20049;-65
2023/09/03 00:05:54;;;;;;;9.30;2.92;;;14.30;99.90;;;;;;5024548;28;20142;-65
2023/09/03 00:08:21;;;;;;;3.50;2.70;;;14.30;99.90;;;;;;5024807;28;20038;-65
2023/09/03 00:10:51;;;;;;;4.63;2.80;;;14.20;99.90;;;;;;5024030;28;20554;-65
2023/09/03 00:13:17;;;;;;;5.53;3.00;;;14.20;99.90;;;;;;5025487;28;20119;-65
2023/09/03 00:15:43;;;;;;;5.65;2.55;;;14.10;99.90;;;;;;5007126;28;20488;-65
2023/09/03 00:18:11;;;;;;;4.50;2.92;;;14.00;99.90;;;;;;5024953;28;20057;-65
2023/09/03 00:20:38;;;;;;;2.88;2.63;;;13.90;99.90;;;;;;5023515;28;20060;-65
2023/09/03 00:23:04;;;;;;;3.63;2.60;;;13.90;99.90;;;;;;5025728;28;20053;-65
2023/09/03 00:25:37;;;;;;;5.00;3.20;;;13.80;99.90;;;;;;5024374;28;20079;-65
2023/09/03 00:28:03;;;;;;;4.80;3.42;;;13.80;99.90;;;;;;5025800;28;20454;-65
2023/09/03 00:30:30;;;;;;;6.40;3.13;;;13.80;99.90;;;;;;5025084;28;20052;-65
2023/09/03 00:32:55;;;;;;;4.28;3.30;;;13.70;99.90;;;;;;5023751;28;20049;-65
2023/09/03 00:35:21;;;;;;;5.05;3.00;;;13.70;99.90;;;;;;5025224;28;20517;-65
2023/09/03 00:37:47;;;;;;;3.78;3.47;;;13.70;99.90;;;;;;5024123;28;20049;-65
2023/09/03 00:40:12;;;;;;;6.10;2.90;;;13.70;99.90;;;;;;5024724;28;20170;-65
2023/09/03 00:42:38;;;;;;;3.63;2.97;;;13.70;99.90;;;;;;5023972;28;20400;-65
2023/09/03 00:45:04;;;;;;;4.65;2.85;;;13.70;99.90;;;;;;5023919;28;20129;-65
2023/09/03 00:47:31;;;;;;;5.15;2.92;;;13.70;99.90;;;;;;5024587;28;20056;-65
2023/09/03 00:49:59;;;;;;;4.20;3.53;;;13.70;99.90;;;;;;5025360;28;20041;-65
2023/09/03 00:52:25;;;;;;;5.25;3.20;;;13.60;99.90;;;;;;5024014;28;20049;-65
2023/09/03 00:54:52;;;;;;;4.32;3.25;;;13.60;99.90;;;;;;5024629;28;20037;-64
2023/09/03 00:57:18;;;;;;;4.22;3.08;;;13.60;99.90;;;;;;5025318;28;20451;-65
2023/09/03 00:59:45;;;;;;;5.55;3.45;;;13.60;99.90;;;;;;5024566;28;20042;-64
2023/09/03 01:02:14;;;;;;;6.28;3.67;;;13.60;99.90;;;;;;5025348;28;20095;-64
2023/09/03 01:04:39;;;;;;;3.95;3.28;;;13.60;99.90;;;;;;5024296;28;20124;-64
2023/09/03 01:07:07;;;;;;;3.60;2.90;;;13.60;99.90;;;;;;5023758;28;20125;-65
2023/09/03 01:09:33;;;;;;;3.95;2.63;;;13.60;99.90;;;;;;5024266;28;20045;-64
2023/09/03 01:12:19;;;;;;;4.95;3.13;;;13.60;99.90;;;;;;5024975;28;20050;-64
2023/09/03 01:15:04;;;;;;;6.57;3.60;;;13.50;99.90;;;;;;5026687;28;20041;-64
2023/09/03 01:17:30;;;;;;;5.30;3.47;;;13.50;99.90;;;;;;5022293;28;20061;-65
2023/09/03 01:20:05;;;;;;;7.40;4.25;;;13.50;99.90;;;;;;5028735;28;20076;-65
2023/09/03 01:22:58;;;;;;;8.88;3.55;;;13.50;99.90;;;;;;5028359;28;20041;-65
2023/09/03 01:25:49;;;;;;;4.55;3.42;;;13.50;99.90;;;;;;5027261;28;20077;-65
2023/09/03 01:28:26;;;;;;;7.68;3.95;;;13.50;99.90;;;;;;5027690;28;20041;-65
2023/09/03 01:30:57;;;;;;;5.78;4.22;;;13.50;99.90;;;;;;5028571;28;20045;-64
2023/09/03 01:33:26;;;;;;;5.57;3.42;;;13.50;99.90;;;;;;5027470;28;20130;-65
2023/09/03 01:35:57;;;;;;;4.30;3.90;;;13.50;99.90;;;;;;5029368;28;20121;-64
2023/09/03 01:38:23;;;;;;;7.50;4.25;;;13.50;99.90;;;;;;5027557;28;20146;-64
2023/09/03 01:40:55;;;;;;;5.50;3.42;;;13.60;99.90;;;;;;5028187;28;20734;-65
2023/09/03 01:43:22;;;;;;;6.38;3.60;;;13.60;99.90;;;;;;5027557;28;20030;-64
2023/09/03 01:45:53;;;;;;;4.07;3.55;;;13.60;99.90;;;;;;5028145;28;20038;-65
2023/09/03 01:48:48;;;;;;;3.45;3.17;;;13.60;99.90;;;;;;5028416;28;20045;-64
2023/09/03 01:51:38;;;;;;;5.43;3.53;;;13.50;99.90;;;;;;5026154;28;20057;-64
2023/09/03 01:54:07;;;;;;;5.50;3.70;;;13.50;99.90;;;;;;5013838;28;20381;-64
2023/09/03 01:56:38;;;;;;;4.38;3.53;;;13.50;99.90;;;;;;5027230;28;20049;-64
2023/09/03 01:59:15;;;;;;;6.93;3.70;;;13.50;99.90;;;;;;5014817;28;20432;-65
2023/09/03 02:01:42;;;;;;;5.05;3.70;;;13.50;99.90;;;;;;5027621;28;20041;-65
2023/09/03 02:04:08;;;;;;;7.75;3.58;;;13.40;99.90;;;;;;5027148;28;20041;-65
2023/09/03 02:06:34;;;;;;;4.78;3.70;;;13.40;99.90;;;;;;5027825;28;20065;-64
2023/09/03 02:09:00;;;;;;;3.65;3.30;;;13.40;99.90;;;;;;5025623;28;20100;-65
2023/09/03 02:11:25;;;;;;;3.63;3.33;;;13.40;99.90;;;;;;5027862;28;20068;-64
2023/09/03 02:13:51;;;;;;;6.38;3.90;;;13.40;99.90;;;;;;5026962;28;20044;-65
2023/09/03 02:16:17;;;;;;;5.95;3.95;;;13.40;99.90;;;;;;5027274;28;20045;-65
2023/09/03 02:18:43;;;;;;;3.92;3.53;;;13.40;99.90;;;;;;5026822;28;20038;-65
2023/09/03 02:21:09;;;;;;;4.60;3.47;;;13.40;99.90;;;;;;5027068;28;20045;-65
2023/09/03 02:23:34;;;;;;;5.13;3.60;;;13.40;99.90;;;;;;5025898;28;20091;-65
2023/09/03 02:26:03;;;;;;;6.95;3.58;;;13.40;99.90;;;;;;5025564;28;20057;-65
2023/09/03 02:28:29;;;;;;;10.48;3.83;;;13.30;99.90;;;;;;5026509;28;20072;-65
2023/09/03 02:30:55;;;;;;;5.65;3.38;;;13.30;99.90;;;;;;5008685;28;20479;-65
2023/09/03 02:33:22;;;;;;;6.38;3.60;;;13.30;99.90;;;;;;5026660;28;20499;-65
2023/09/03 02:35:49;;;;;;;6.78;3.50;;;13.30;99.90;;;;;;5026284;28;20795;-65
2023/09/03 02:38:15;;;;;;;3.42;3.13;;;13.30;99.90;;;;;;5025586;28;20136;-65
2023/09/03 02:40:41;;;;;;;5.40;3.45;;;13.30;99.90;;;;;;5027472;28;20033;-65
2023/09/03 02:43:07;;;;;;;4.38;3.67;;;13.20;99.90;;;;;;5026095;28;20192;-65
2023/09/03 02:45:32;;;;;;;3.78;3.35;;;13.20;99.90;;;;;;5027345;28;20046;-65
2023/09/03 02:47:58;;;;;;;4.97;3.80;;;13.20;99.90;;;;;;5025570;28;20038;-64
2023/09/03 02:50:24;;;;;;;7.95;3.60;;;13.20;99.90;;;;;;5027163;28;20052;-65
2023/09/03 02:52:49;;;;;;;3.78;3.10;;;13.30;99.90;;;;;;5025918;28;20056;-65
2023/09/03 02:55:15;;;;;;;3.83;3.47;;;13.20;99.90;;;;;;5027024;28;20037;-65
2023/09/03 02:57:41;;;;;;;4.68;3.30;;;13.20;99.90;;;;;;5024754;28;20530;-65
2023/09/03 03:00:08;;;;;;;5.50;3.58;;;13.20;99.90;;;;;;5008768;28;20137;-65
2023/09/03 03:02:34;;;;;;;7.18;3.80;;;13.20;99.90;;;;;;5027480;28;20518;-65
2023/09/03 03:05:00;;;;;;;5.15;3.88;;;13.20;99.90;;;;;;5023925;28;20084;-64
2023/09/03 03:07:26;;;;;;;3.60;3.30;;;13.20;99.90;;;;;;5008957;28;20034;-65
2023/09/03 03:09:52;;;;;;;6.45;3.58;;;13.10;99.90;;;;;;5007973;28;20048;-65
2023/09/03 03:12:18;;;;;;;4.93;3.60;;;13.10;99.90;;;;;;5026865;28;20053;-65
2023/09/03 03:14:45;;;;;;;3.92;3.63;;;13.20;99.90;;;;;;5025853;28;20052;-64
2023/09/03 03:17:10;;;;;;;6.45;3.42;;;13.10;99.90;;;;;;5026261;28;20049;-65
2023/09/03 03:19:36;;;;;;;5.50;3.50;;;13.10;99.90;;;;;;5026127;28;20422;-65
2023/09/03 03:22:02;;;;;;;3.47;2.92;;;13.00;99.90;;;;;;5024069;28;20132;-64
2023/09/03 03:24:29;;;;;;;5.22;3.38;;;13.10;99.90;;;;;;5026900;28;20049;-65
2023/09/03 03:26:55;;;;;;;6.80;3.55;;;13.00;99.90;;;;;;5025403;28;20064;-65
2023/09/03 03:29:21;;;;;;;4.60;3.40;;;13.00;99.90;;;;;;5024739;28;20515;-65
2023/09/03 03:31:46;;;;;;;3.67;3.38;;;13.00;99.90;;;;;;5006605;28;20046;-65
2023/09/03 03:34:12;;;;;;;8.32;4.15;;;13.00;99.90;;;;;;5024985;28;20060;-64
2023/09/03 03:36:38;;;;;;;6.38;3.20;;;13.00;99.90;;;;;;5025578;28;20495;-65
2023/09/03 03:39:04;;;;;;;8.35;3.50;;;13.00;99.90;;;;;;5025567;28;20060;-64
2023/09/03 03:41:30;;;;;;;3.60;2.92;;;12.90;99.90;;;;;;5026432;28;20411;-64
2023/09/03 03:43:56;;;;;;;3.50;3.20;;;12.90;99.90;;;;;;5007177;28;20045;-65
2023/09/03 03:46:22;;;;;;;4.05;3.72;;;12.80;99.90;;;;;;5026776;28;20100;-65
2023/09/03 03:48:48;;;;;;;5.70;3.60;;;12.80;99.90;;;;;;5023620;28;20142;-65
2023/09/03 03:51:14;;;;;;;6.85;3.42;;;12.70;99.90;;;;;;5025652;28;20084;-64
2023/09/03 03:53:40;;;;;;;5.15;3.40;;;12.80;99.90;;;;;;5025514;28;20096;-65
2023/09/03 03:56:08;;;;;;;9.73;3.95;;;12.70;99.90;;;;;;5025488;28;20049;-64
2023/09/03 03:58:36;;;;;;;6.18;3.35;;;12.70;99.90;;;;;;5026253;28;20049;-65
2023/09/03 04:01:15;;;;;;;5.35;3.47;;;12.80;99.90;;;;;;5024329;28;20052;-65
2023/09/03 04:03:42;;;;;;;5.57;3.60;;;12.80;99.90;;;;;;5008067;28;20064;-65
2023/09/03 04:06:08;;;;;;;3.72;3.42;;;12.80;99.90;;;;;;5025030;28;20033;-65
2023/09/03 04:08:36;;;;;;;6.20;3.67;;;12.70;99.90;;;;;;5025809;28;20384;-65
2023/09/03 04:11:04;;;;;;;3.70;3.40;;;12.80;99.90;;;;;;5023228;28;20088;-65
2023/09/03 04:13:31;;;;;;;6.68;3.83;;;12.90;99.90;;;;;;5025560;28;20049;-64
2023/09/03 04:15:58;;;;;;;8.73;4.25;;;12.90;99.90;;;;;;5025703;28;20091;-65
2023/09/03 04:18:25;;;;;;;4.65;3.53;;;12.80;99.90;;;;;;5024843;28;20077;-64
2023/09/03 04:20:57;;;;;;;4.53;3.90;;;12.90;99.90;;;;;;5024985;28;20047;-65
2023/09/03 04:23:24;;;;;;;7.28;3.30;;;12.90;99.90;;;;;;5017571;28;20045;-64
2023/09/03 04:25:52;;;;;;;5.22;3.28;;;12.90;99.90;;;;;;5024155;28;20045;-65
2023/09/03 04:28:19;;;;;;;5.43;3.33;;;13.00;99.90;;;;;;5025129;28;20050;-64
2023/09/03 04:30:45;;;;;;;4.82;3.40;;;13.00;99.90;;;;;;5025488;28;20565;-64
2023/09/03 04:33:11;;;;;;;3.72;3.42;;;13.00;99.90;;;;;;5024806;28;20076;-65
2023/09/03 04:35:37;;;;;;;3.95;3.42;;;13.00;99.90;;;;;;5024625;28;20316;-64
2023/09/03 04:38:04;;;;;;;4.47;3.92;;;13.00;99.90;;;;;;5025635;28;20053;-64
2023/09/03 04:40:34;;;;;;;5.25;3.30;;;13.00;99.90;;;;;;5025081;28;20037;-64
2023/09/03 04:43:00;;;;;;;4.07;3.67;;;13.10;99.90;;;;;;5025375;28;20119;-65
2023/09/03 04:45:26;;;;;;;3.53;3.25;;;13.00;99.90;;;;;;5024693;28;20429;-64
2023/09/03 04:47:52;;;;;;;4.78;3.70;;;13.00;99.90;;;;;;4991564;28;20049;-65
2023/09/03 04:50:18;;;;;;;5.68;3.55;;;13.00;99.90;;;;;;5027765;28;20742;-64
2023/09/03 04:52:44;;;;;;;4.40;3.95;;;13.00;99.90;;;;;;5027278;28;20064;-65
2023/09/03 04:55:13;;;;;;;5.45;3.55;;;13.00;99.90;;;;;;5029111;28;20404;-65
2023/09/03 04:57:38;;;;;;;5.75;3.78;;;13.00;99.90;;;;;;5028852;28;20052;-64
2023/09/03 05:00:05;;;;;;;3.67;3.13;;;13.00;99.90;;;;;;5029000;28;20045;-65
2023/09/03 05:02:31;;;;;;;3.67;3.38;;;13.00;99.90;;;;;;5027836;28;20041;-65
2023/09/03 05:04:58;;;;;;;4.13;3.67;;;13.00;99.90;;;;;;5027759;28;20051;-64
2023/09/03 05:07:24;;;;;;;4.25;3.83;;;13.10;99.90;;;;;;5029033;28;20068;-64
2023/09/03 05:09:56;;;;;;;4.25;3.00;;;13.00;99.90;;;;;;5028505;28;20415;-64
2023/09/03 05:12:22;;;;;;;3.67;3.47;;;13.10;99.90;;;;;;5028975;28;20037;-65
2023/09/03 05:14:48;;;;;;;5.80;3.20;;;13.10;99.90;;;;;;5027989;28;20041;-64
2023/09/03 05:17:14;;;;;;;4.55;3.50;;;13.10;99.90;;;;;;5028615;28;20065;-64
2023/09/03 05:19:40;;;;;;;4.47;3.78;;;13.20;99.90;;;;;;5027946;28;20099;-64
2023/09/03 05:22:06;;;;;;;6.72;3.10;;;13.20;99.90;;;;;;5028468;28;20053;-65
2023/09/03 05:24:32;;;;;;;4.65;3.30;;;13.20;99.90;;;;;;5026696;28;20068;-64
2023/09/03 05:26:58;;;;;;;6.25;3.55;;;13.20;99.90;;;;;;5028448;28;20527;-65
2023/09/03 05:29:29;;;;;;;5.45;3.58;;;13.20;99.90;;;;;;5028269;28;20172;-65
2023/09/03 05:31:55;;;;;;;6.78;3.65;;;13.30;99.90;;;;;;5026080;28;20151;-64
2023/09/03 05:34:21;;;;;;;6.30;3.55;;;13.30;99.90;;;;;;5028862;28;20506;-64
2023/09/03 05:36:47;;;;;;;3.75;3.40;;;13.30;99.90;;;;;;5027509;28;20514;-64
2023/09/03 05:39:12;;;;;;;3.97;3.22;;;13.40;99.90;;;;;;5028486;28;20052;-64
2023/09/03 05:41:38;;;;;;;3.10;2.88;;;13.40;99.90;;;;;;5027406;28;20068;-64
2023/09/03 05:44:09;;;;;;;5.15;3.10;;;13.40;99.90;;;;;;5027603;28;20045;-64
2023/09/03 05:46:35;;;;;;;4.07;3.25;;;13.50;99.90;;;;;;5010221;28;20068;-64
2023/09/03 05:49:02;;;;;;;4.05;3.33;;;13.50;99.90;;;;;;5027898;28;20056;-64
2023/09/03 05:51:27;;;;;;;7.25;3.75;;;13.60;99.90;;;;;;5028565;28;20053;-64
2023/09/03 05:53:53;;;;;;;8.45;3.53;;;13.60;99.90;;;;;;5027262;28;20098;-64
2023/09/03 05:56:19;;;;;;;3.65;3.25;;;13.70;99.90;;;;;;5028032;28;20057;-65
2023/09/03 05:58:45;;;;;;;4.05;3.65;;;13.70;99.90;;;;;;5026494;28;20148;-64
2023/09/03 06:01:12;;;;;;;3.33;3.10;;;13.80;99.90;;;;;;5026643;28;20072;-64
2023/09/03 06:03:39;;;;;;;4.32;3.25;;;13.80;99.90;;;;;;5027666;28;20403;-64
2023/09/03 06:06:07;;;;;;;3.65;3.35;;;13.80;99.90;;;;;;5026147;28;20049;-64
2023/09/03 06:08:33;;;;;;;3.53;3.28;;;13.90;99.90;;;;;;5027260;28;20046;-65
2023/09/03 06:11:00;;;;;;;5.18;3.28;;;14.00;99.90;;;;;;5026342;28;20060;-64
2023/09/03 06:13:27;;;;;;;9.35;3.58;;;14.00;99.90;;;;;;5026969;28;20134;-64
2023/09/03 06:15:54;;;;;;;4.43;3.45;;;14.10;99.90;;;;;;5026912;28;20160;-64
2023/09/03 06:18:19;;;;;;;5.22;3.47;;;14.10;99.90;;;;;;5026156;28;20132;-64
2023/09/03 06:20:46;;;;;;;6.28;3.65;;;14.20;99.90;;;;;;5027519;28;20120;-65
2023/09/03 06:23:15;;;;;;;4.93;3.72;;;14.20;99.90;;;;;;5026082;28;20401;-64
2023/09/03 06:25:46;;;;;;;5.55;3.60;;;14.30;99.90;;;;;;5027796;28;20054;-64
2023/09/03 06:28:12;;;;;;;3.28;3.08;;;14.40;99.90;;;;;;5026079;28;20055;-64
2023/09/03 06:30:37;;;;;;;4.43;3.70;;;14.40;99.90;;;;;;5026801;28;20415;-64
2023/09/03 06:33:03;;;;;;;4.20;3.80;;;14.50;99.90;;;;;;5026647;28;20038;-64
2023/09/03 06:35:29;;;;;;;5.97;3.72;;;14.50;99.90;;;;;;5027004;28;20053;-65
2023/09/03 06:37:58;;;;;;;4.53;3.72;;;14.60;99.90;;;;;;5025885;28;20044;-64
2023/09/03 06:40:24;;;;;;;5.40;3.30;;;14.60;99.90;;;;;;5025521;28;20517;-64
2023/09/03 06:42:51;;;;;;;4.40;3.63;;;14.70;99.90;;;;;;5025480;28;20060;-64
2023/09/03 06:45:17;;;;;;;4.40;3.72;;;14.80;99.90;;;;;;5026183;28;20396;-64
2023/09/03 06:47:43;;;;;;;6.07;3.80;;;14.90;99.90;;;;;;5027992;28;20444;-64
2023/09/03 06:50:09;;;;;;;7.45;4.18;;;15.00;99.90;;;;;;5025140;28;20125;-64
2023/09/03 06:52:35;;;;;;;5.28;4.07;;;15.10;99.90;;;;;;5026638;28;20124;-65
2023/09/03 06:55:02;;;;;;;5.18;4.18;;;15.20;99.90;;;;;;5026641;28;20041;-65
2023/09/03 06:57:28;;;;;;;3.90;3.60;;;15.30;99.90;;;;;;5026581;28;20525;-64
2023/09/03 06:59:54;;;;;;;4.07;3.65;;;15.40;99.90;;;;;;5026678;28;20132;-65
2023/09/03 07:02:20;;;;;;;4.60;4.20;;;15.50;99.90;;;;;;5025857;28;20084;-64
2023/09/03 07:04:46;;;;;;;4.18;3.75;;;15.70;99.90;;;;;;5027293;28;20065;-64
2023/09/03 07:07:12;;;;;;;4.82;3.50;;;16.00;99.90;;;;;;5026109;28;20103;-65
2023/09/03 07:09:38;;;;;;;7.65;3.83;;;16.30;99.90;;;;;;5026371;28;20084;-64
2023/09/03 07:12:04;;;;;;;4.78;3.88;;;16.50;99.90;;;;;;5025240;28;20571;-65
2023/09/03 07:14:34;;;;;;;4.10;3.70;;;16.80;99.90;;;;;;5026198;28;20053;-65
2023/09/03 07:17:01;;;;;;;4.43;3.95;;;17.10;99.90;;;;;;5025209;28;20492;-65
2023/09/03 07:19:28;;;;;;;5.25;3.70;;;17.40;99.90;;;;;;5025165;28;20403;-64
2023/09/03 07:21:54;;;;;;;6.03;3.80;;;17.60;99.90;;;;;;5015145;28;20144;-64
2023/09/03 07:24:20;;;;;;;4.47;3.63;;;17.90;99.90;;;;;;5024982;28;20056;-65
2023/09/03 07:26:46;;;;;;;6.75;3.83;;;18.10;99.90;;;;;;5026931;28;20033;-64
2023/09/03 07:29:13;;;;;;;3.70;3.40;;;18.20;99.90;;;;;;5023870;28;20041;-65
2023/09/03 07:31:43;;;;;;;4.50;3.30;;;18.30;99.90;;;;;;5025437;28;20046;-65
2023/09/03 07:34:10;;;;;;;7.03;3.63;;;18.40;99.90;;;;;;5025824;28;20073;-65
2023/09/03 07:36:37;;;;;;;5.05;4.20;;;18.40;99.90;;;;;;5025737;28;20038;-65
2023/09/03 07:39:06;;;;;;;3.72;3.33;;;18.40;99.90;;;;;;5025118;28;20159;-65
2023/09/03 07:41:36;;;;;;;4.57;3.65;;;18.40;99.90;;;;;;5024458;28;20037;-65
2023/09/03 07:44:02;;;;;;;5.35;3.42;;;18.50;99.90;;;;;;5024465;28;20058;-65
2023/09/03 07:46:28;;;;;;;4.25;3.45;;;18.50;99.90;;;;;;5022684;28;20040;-65
2023/09/03 07:48:53;;;;;;;4.30;3.05;;;18.60;99.90;;;;;;5026140;28;20041;-65
2023/09/03 07:51:21;;;;;;;8.00;3.78;;;18.60;99.90;;;;;;5024938;28;20084;-65
2023/09/03 07:53:47;;;;;;;4.05;3.38;;;18.60;99.90;;;;;;5024026;28;20079;-65
2023/09/03 07:56:14;;;;;;;3.38;3.08;;;18.70;99.90;;;;;;5017459;28;20120;-65
2023/09/03 07:58:42;;;;;;;6.85;3.20;;;18.80;99.90;;;;;;5024718;28;20045;-65
2023/09/03 08:01:11;;;;;;;3.30;3.10;;;18.90;99.90;;;;;;5026083;28;20056;-65
2023/09/03 08:03:38;;;;;;;3.95;3.40;;;19.00;99.90;;;;;;5024413;28;20132;-65
2023/09/03 08:06:04;;;;;;;5.75;2.88;;;19.10;99.90;;;;;;5024262;28;20049;-65
2023/09/03 08:08:30;;;;;;;2.50;2.30;;;19.30;99.90;;;;;;5021696;28;20037;-65
2023/09/03 08:10:56;;;;;;;4.20;2.42;;;19.30;99.90;;;;;;5025034;28;20049;-65
2023/09/03 08:13:24;;;;;;;5.13;2.20;;;19.30;99.90;;;;;;5023247;28;20053;-65
2023/09/03 08:15:50;;;;;;;2.63;2.40;;;19.40;99.90;;;;;;5023885;28;20073;-65
2023/09/03 08:18:16;;;;;;;4.63;2.03;;;19.40;99.90;;;;;;5026076;28;20125;-65
2023/09/03 08:20:42;;;;;;;7.00;1.92;;;19.60;99.90;;;;;;5024266;28;20088;-65
2023/09/03 08:23:11;;;;;;;3.53;2.25;;;19.60;99.90;;;;;;5024900;28;20458;-65
2023/09/03 08:25:37;;;;;;;3.20;2.30;;;19.60;99.90;;;;;;5030168;28;20482;-65
2023/09/03 08:28:03;;;;;;;4.38;2.30;;;19.70;99.90;;;;;;5014050;28;20037;-65
2023/09/03 08:30:29;;;;;;;3.72;2.33;;;19.90;99.90;;;;;;5031472;28;20414;-65
2023/09/03 08:32:55;;;;;;;3.95;2.17;;;20.00;99.90;;;;;;5031557;28;20038;-65
2023/09/03 08:35:21;;;;;;;4.50;2.47;;;20.10;99.90;;;;;;5010761;28;20042;-65
2023/09/03 08:37:47;;;;;;;2.47;1.45;;;20.10;99.60;;;;;;5025382;28;20160;-65
2023/09/03 08:40:13;;;;;;;4.28;1.77;;;20.10;99.60;;;;;;5032732;28;20033;-65
2023/09/03 08:42:40;;;;;;;4.40;2.10;;;20.00;98.60;;;;;;5030025;28;20511;-65
2023/09/03 08:45:12;;;;;;;2.53;2.17;;;20.00;99.90;;;;;;5030586;28;20472;-65
2023/09/03 08:47:42;;;;;;;2.65;2.10;;;20.00;99.90;;;;;;5031185;28;20052;-65
2023/09/03 08:50:09;;;;;;;3.33;2.42;;;20.10;99.90;;;;;;5031941;28;20744;-65
2023/09/03 08:52:37;;;;;;;3.80;2.38;;;20.20;99.90;;;;;;5031257;28;20107;-65
2023/09/03 08:55:05;;;;;;;5.07;2.03;;;20.30;99.90;;;;;;5030123;28;20057;-65
2023/09/03 08:57:34;;;;;;;4.13;2.17;;;20.40;99.90;;;;;;5031237;28;20041;-65
2023/09/03 09:00:05;;;;;;;;;;;20.60;99.90;;;;;;5031672;28;20048;-65
2023/09/03 09:02:32;;;;;;;1.95;1.58;;;20.60;99.60;;;;;;5028983;28;20353;-65
2023/09/03 09:05:00;;;;;;;1.80;1.60;;;20.70;96.90;;;;;;5028851;28;20052;-65
2023/09/03 09:07:26;;;;;;;1.95;1.25;;;20.60;96.70;;;;;;5030648;28;20458;-65
2023/09/03 09:09:58;;;;;;;3.03;1.50;;;20.60;94.60;;;;;;5031106;28;20041;-65
2023/09/03 09:12:24;;;;;;;2.50;1.40;;;20.50;93.50;;;;;;5031089;28;20129;-66
2023/09/03 09:15:00;;;;;;;2.95;1.30;;;20.50;93.30;;;;;;5013881;28;20133;-65
2023/09/03 09:17:30;;;;;;;2.80;1.50;;;20.60;98.00;;;;;;5023584;28;20102;-65
2023/09/03 09:19:59;;;;;;;2.08;1.50;;;20.70;94.30;;;;;;5030501;28;20588;-65
2023/09/03 09:22:25;;;;;;;3.97;1.50;;;20.80;91.60;;;;;;5030634;28;20045;-65
2023/09/03 09:24:51;;;;;;;2.10;1.35;;;20.80;87.20;;;;;;5021432;28;20136;-65
2023/09/03 09:27:19;;;;;;;4.88;1.80;;;20.70;84.30;;;;;;5026461;28;20523;-65
2023/09/03 09:29:45;;;;;;;2.00;1.70;;;20.70;84.90;;;;;;5028994;28;20045;-65
2023/09/03 09:32:22;;;;;;;5.45;1.30;;;20.80;80.90;;;;;;5031419;28;20053;-65
2023/09/03 09:34:49;;;;;;;1.70;1.40;;;20.80;77.70;;;;;;5027276;28;20039;-65
2023/09/03 09:37:15;;;;;;;4.38;1.73;;;20.80;72.00;;;;;;5026599;28;20041;-66
2023/09/03 09:39:46;;;;;;;2.17;1.42;;;20.70;73.50;;;;;;5027181;28;20053;-66
2023/09/03 09:42:13;;;;;;;2.70;1.00;;;20.70;78.30;;;;;;5026053;28;20806;-66
2023/09/03 09:44:51;;;;;;;3.92;1.20;;;20.80;81.10;;;;;;5027492;28;20107;-65
2023/09/03 09:47:17;;;;;;;4.22;1.33;;;20.90;78.60;;;;;;5025422;28;20128;-65
2023/09/03 09:49:45;;;;;;;2.33;1.27;;;21.00;75.00;;;;;;5026336;28;20042;-65
2023/09/03 09:52:14;;;;;;;2.58;1.20;;;21.10;74.60;;;;;;5025770;28;20480;-65
2023/09/03 09:54:41;;;;;;;2.97;1.20;;;21.10;66.30;;;;;;5026984;28;20034;-65
2023/09/03 09:57:15;;;;;;;2.33;1.20;;;21.30;66.80;;;;;;5025969;28;20038;-66
2023/09/03 09:59:42;;;;;;;1.83;1.10;;;21.30;69.30;;;;;;5012138;28;20046;-66
2023/09/03 10:02:12;;;;;;;3.83;1.20;;;21.40;68.00;;;;;;5024813;28;20049;-66
2023/09/03 10:04:43;;;;;;;2.72;1.13;;;21.50;60.30;;;;;;5024283;28;20041;-66
2023/09/03 10:07:10;;;;;;;2.58;1.30;;;21.30;52.70;;;;;;5026692;28;20041;-66
2023/09/03 10:09:40;;;;;;;3.25;1.25;;;21.30;46.90;;;;;;5025445;28;20041;-66
2023/09/03 10:12:07;;;;;;;1.50;0.90;;;21.40;56.70;;;;;;5025526;28;20388;-66
2023/09/03 10:14:33;;;;;;;1.33;0.90;;;21.40;50.20;;;;;;5025081;28;20049;-66
2023/09/03 10:17:05;;;;;;;2.08;0.95;;;21.50;50.70;;;;;;5025436;28;20495;-66
2023/09/03 10:19:40;;;;;;;2.85;0.88;;;21.60;46.20;;;;;;5028036;28;20045;-65
2023/09/03 10:22:09;;;;;;;2.65;1.08;;;21.80;46.30;;;;;;5026541;28;20143;-65
2023/09/03 10:24:36;;;;;;;1.40;1.17;;;21.90;41.50;;;;;;5026397;28;20527;-65
2023/09/03 10:27:09;;;;;;;2.42;0.90;;;21.90;23.40;;;;;;5025572;28;20104;-65
2023/09/03 10:29:36;;;;;;;0.60;0.60;;;21.90;11.50;;;;;;5027602;28;20154;-66
2023/09/03 10:32:03;;;;;;;1.38;0.57;;;21.90;4.70;;;;;;5025068;28;20115;-66
2023/09/03 10:34:30;;;;;;;2.85;0.88;;;21.90;1.10;;;;;;5024853;28;20480;-66
2023/09/03 10:37:10;;;;;;;5.63;0.85;;;21.90;13.20;;;;;;5026888;28;20133;-66
2023/09/03 10:39:40;;;;;;;1.27;0.80;;;21.90;14.00;;;;;;5024058;28;20130;-65
2023/09/03 10:42:15;;;;;;;2.85;0.88;;;21.90;1.00;;;;;;5026501;28;20042;-65
2023/09/03 10:44:49;;;;;;;1.90;1.00;;;21.90;1.60;;;;;;5023770;28;20048;-65
2023/09/03 10:47:17;;;;;;;2.05;1.05;;;21.80;1.30;;;;;;5023734;28;20099;-65
2023/09/03 10:49:51;;;;;;;0.82;0.80;;;21.80;11.30;;;;;;5025584;28;20454;-65
2023/09/03 10:52:32;;;;;;;1.58;0.90;;;21.80;10.50;;;;;;5025402;28;20057;-66
2023/09/03 10:55:20;;;;;;;2.08;0.77;;;21.80;6.10;;;;;;5024966;28;20524;-65
2023/09/03 10:58:16;;;;;;;1.27;0.82;;;21.80;7.70;;;;;;5025339;28;20038;-65
2023/09/03 11:01:03;;;;;;;;;;;21.90;12.60;;;;;;5024216;28;20140;-65
2023/09/03 11:03:45;;;;;;;1.05;0.70;;;21.80;2.10;;;;;;5025511;28;19968;-65
2023/09/03 11:06:22;;;;;;;1.50;0.68;;;21.70;1.00;;;;;;5025028;28;20046;-65
2023/09/03 11:09:10;;;;;;;1.92;0.80;;;21.60;6.30;;;;;;5022467;28;20037;-65
2023/09/03 11:11:38;;;;;;;1.48;0.70;;;21.40;3.60;;;;;;5014242;28;20050;-65
2023/09/03 11:14:06;;;;;;;0.68;0.63;;;21.40;11.60;;;;;;5025282;28;20204;-66
2023/09/03 11:16:42;;;;;;;2.08;1.02;;;21.30;10.90;;;;;;5012436;28;20409;-65
2023/09/03 11:19:08;;;;;;;1.13;0.80;;;21.30;12.10;;;;;;5008415;28;20191;-66
2023/09/03 11:21:36;;;;;;;1.70;0.73;;;21.40;15.20;;;;;;5025796;28;20625;-65
2023/09/03 11:24:16;;;;;;;1.13;0.85;;;21.50;12.10;;;;;;5024798;28;20049;-65
2023/09/03 11:26:43;;;;;;;1.90;0.88;;;21.60;13.20;;;;;;4994292;28;20034;-65
2023/09/03 11:29:22;;;;;;;1.27;0.60;;;21.70;7.50;;;;;;5026773;28;20637;-66
2023/09/03 11:31:49;;;;;;;0.60;0.60;;;21.80;1.00;;;;;;5024916;28;20057;-65
2023/09/03 11:34:19;;;;;;;0.70;0.70;;;21.90;1.00;;;;;;5024345;28;20044;-66
2023/09/03 11:36:45;;;;;;;2.83;1.13;;;22.00;1.00;;;;;;5025237;28;20038;-66
2023/09/03 11:39:15;;;;;;;1.35;0.70;;;22.10;2.00;;;;;;5025597;28;20064;-65
2023/09/03 11:41:47;;;;;;;1.50;0.80;;;22.20;1.00;;;;;;5026645;28;20076;-65
2023/09/03 11:44:23;;;;;;;0.75;0.70;;;22.30;1.00;;;;;;5023353;28;20128;-65
2023/09/03 11:47:00;;;;;;;2.72;0.88;;;22.40;1.00;;;;;;5025710;28;20148;-65
2023/09/03 11:49:26;;;;;;;3.65;0.70;;;22.50;1.00;;;;;;5025506;28;20057;-65
2023/09/03 11:51:53;;;;;;;1.42;0.50;;;22.50;1.00;;;;;;5007301;28;20045;-66
2023/09/03 11:54:26;;;;;;;0.60;0.60;;;22.40;1.00;;;;;;5026042;28;20042;-66
2023/09/03 11:57:00;;;;;;;3.42;0.52;;;22.20;1.00;;;;;;5022715;28;20054;-66
2023/09/03 11:59:26;;;;;;;0.55;0.55;;;21.90;1.00;;;;;;5024819;28;20058;-66
2023/09/03 12:01:53;;;;;;;2.55;0.70;;;21.80;1.00;;;;;;5022694;28;20041;-65
2023/09/03 12:04:20;;;;;;;1.52;0.70;;;21.60;1.00;;;;;;5024568;28;20501;-65
2023/09/03 12:06:46;;;;;;;3.92;0.75;;;21.60;1.00;;;;;;5024666;28;20057;-66
2023/09/03 12:09:12;;;;;;;0.80;0.75;;;21.40;1.00;;;;;;5025154;28;20519;-65
2023/09/03 12:11:38;;;;;;;2.03;0.80;;;21.40;1.00;;;;;;5025065;28;20110;-65
2023/09/03 12:14:11;;;;;;;1.40;0.80;;;21.40;6.50;;;;;;5024350;28;20057;-66
2023/09/03 12:16:47;;;;;;;1.33;0.65;;;21.30;10.60;;;;;;5024574;28;20745;-66
2023/09/03 12:19:12;;;;;;;0.88;0.88;;;21.00;16.10;;;;;;5023419;28;20053;-66
2023/09/03 12:21:38;;;;;;;1.65;0.82;;;20.90;21.60;;;;;;5007240;28;20502;-66
2023/09/03 12:24:08;;;;;;;2.55;0.88;;;20.80;33.40;;;;;;5024676;28;20057;-65
2023/09/03 12:26:37;;;;;;;1.80;0.77;;;20.80;38.40;;;;;;5025105;28;20187;-65
2023/09/03 12:29:04;;;;;;;1.92;1.00;;;20.80;40.40;;;;;;5025563;28;20049;-66
2023/09/03 12:31:42;;;;;;;1.95;0.90;;;21.00;44.70;;;;;;5023627;28;20037;-66
2023/09/03 12:34:09;;;;;;;1.33;0.87;;;21.00;41.90;;;;;;5025535;28;20049;-65
2023/09/03 12:36:53;;;;;;;2.72;0.82;;;20.90;44.60;;;;;;5024847;28;20057;-66
2023/09/03 12:39:31;;;;;;;4.13;0.93;;;20.90;49.50;;;;;;5025068;28;20049;-65
2023/09/03 12:41:59;;;;;;;2.53;1.25;;;20.90;45.60;;;;;;5024421;28;20140;-65
2023/09/03 12:44:28;;;;;;;2.50;1.00;;;20.90;55.60;;;;;;5024414;28;20060;-66
2023/09/03 12:46:55;;;;;;;1.80;1.00;;;21.00;58.00;;;;;;5025865;28;20439;-65
2023/09/03 12:49:21;;;;;;;3.72;0.98;;;21.00;52.20;;;;;;5024393;28;20058;-66
2023/09/03 12:51:47;;;;;;;4.82;1.00;;;21.00;57.20;;;;;;5024747;28;20496;-67
2023/09/03 12:54:14;;;;;;;2.17;1.10;;;20.90;41.80;;;;;;5024275;28;20045;-66